Weather at Palm Beach Sheriff's Range Heliport

Public forecast

Using degrees Fahrenheit for public forecast. Weather courtesy of forecast.io.

Closest aviation weather report (METAR) to Palm Beach Sheriff's Range Heliport

Closest report is Palm Beach International Airport, 5.9 nm (11.0 km) ESE. Retrieved 2022/01/27 07:53 UTC (8 minutes ago):

KPBI 270753Z 32004KT 10SM FEW027 SCT070 BKN110 19/18 A3002 RMK AO2 SLP165 T01890178

Closest aviation forecast (TAF) to Palm Beach Sheriff's Range Heliport

Closest forecast is Palm Beach International Airport, 5.9 nm (11.0 km) ESE. Retrieved 2022/01/27 06:44 UTC (1 hour ago):

TAF KPBI 270538Z 2706/2806 VRB04KT P6SM SCT007 BKN035 FM270700 34004KT P6SM SCT007 BKN020 FM271500 33006KT P6SM SCT015 BKN025 FM271800 31007KT P6SM SCT020 BKN035 FM280000 VRB04KT P6SM SCT025 BKN050